Terminal Aerodrome Forecast
Issued by NWS Melbourne, FL

Home | Current Version | Previous Version | Text Only | Print | Product List | Glossary On
Versions: 1 2 3 4 5 6 7 8 9 10 11 12 13 14 15 16 17 18 19 20 21 22 23 24 25
000
FTUS42 KMLB 301120
TAFMCO
TAF
KMCO 301120Z 3012/0112 14005KT P6SM BKN400
     FM301400 13008KT P6SM SCT400
     FM302000 11013KT P6SM SCT060 SCT300
     FM010200 12005KT P6SM FEW070 BKN300=

USA.gov is the U.S. government's official web portal to all federal, state and local government web resources and services.